»·PEaware :: N953AS KSNA-KBUR

N953AS :: KSNA-KBUR

FLIGHT INFORMATION

Flight Status: Arrived
Operator: Privately registered:
United States
More flights under this callsign
Pilot: Alexander S. (31851)
Aircraft: CESSNA 172 SKYHAWK
(C172)
More flights by this aircraft type
Origin: KSNA John Wayne-Orange Co
United States
Destination: KBUR Bob Hope-Burbank
United States
More flights between these airports :: More routes between these airports
Route: +SLI V23 POPPR SMO125R SMO SMO311R SILEX
File this flight plan on PilotEdge
Remarks: TEC route CSTP1
Altitude:
(Current/Filed)
4,000ft
Speed:
(Current/Filed)
115kts
Departed: 18-Oct-20 08:48 AM
Arrived: 18-Oct-20 09:30 AM
Distance/Time
Traveled:
1nm/0:42
Distance/Time
To Go:
Arrived

Flight Plot

Page will automatically refresh every two minutes.


Map Options




Map Legend


Flown Route
Filed Route
Departure Airport
Arrival Airport
Navaid (VOR, NDB)
Fix

Horizontal Profiles

Position Reports

Time Latitude Longitude Heading Altitude Ground
Speed
18-Oct-20 08:14 33.666933 -117.871842 136 57ft 0kts
18-Oct-20 08:15 33.666933 -117.871842 136 57ft 0kts
18-Oct-20 08:16 33.666933 -117.871842 136 57ft 0kts
18-Oct-20 08:17 33.666933 -117.871842 136 57ft 0kts
18-Oct-20 08:18 33.666933 -117.871842 136 57ft 0kts
18-Oct-20 08:19 33.666933 -117.871842 136 57ft 0kts
18-Oct-20 08:20 33.666933 -117.871842 136 57ft 0kts
18-Oct-20 08:21 33.666933 -117.871841 136 57ft 0kts
18-Oct-20 08:22 33.666933 -117.871841 136 57ft 0kts
18-Oct-20 08:23 33.666933 -117.871841 136 57ft 0kts
18-Oct-20 08:24 33.666933 -117.871842 136 57ft 0kts
18-Oct-20 08:25 33.666933 -117.871841 136 57ft 0kts
18-Oct-20 08:26 33.666933 -117.871842 136 57ft 0kts
18-Oct-20 08:27 33.666933 -117.871841 136 57ft 0kts
18-Oct-20 08:28 33.666933 -117.871842 136 57ft 0kts
18-Oct-20 08:29 33.666933 -117.871842 136 57ft 0kts
18-Oct-20 08:31 33.666933 -117.871842 136 57ft 0kts
18-Oct-20 08:32 33.666933 -117.871842 136 57ft 0kts
18-Oct-20 08:33 33.666933 -117.871841 136 57ft 0kts
18-Oct-20 08:34 33.666933 -117.871841 136 57ft 0kts
18-Oct-20 08:35 33.666933 -117.871841 136 57ft 0kts
18-Oct-20 08:36 33.666933 -117.871841 136 57ft 0kts
18-Oct-20 08:37 33.666933 -117.871841 136 57ft 0kts
18-Oct-20 08:38 33.666933 -117.871841 136 57ft 0kts
18-Oct-20 08:39 33.666933 -117.871841 135 57ft 0kts
18-Oct-20 08:40 33.667195 -117.872137 315 58ft 0kts
18-Oct-20 08:41 33.667195 -117.872137 314 58ft 0kts
18-Oct-20 08:42 33.668470 -117.871604 40 58ft 11kts
18-Oct-20 08:43 33.671137 -117.868947 35 55ft 11kts
18-Oct-20 08:44 33.672981 -117.867451 49 56ft 14kts
18-Oct-20 08:45 33.675594 -117.866165 29 55ft 14kts
18-Oct-20 08:45 33.678381 -117.864398 28 47ft 13kts
18-Oct-20 08:47 33.679984 -117.863634 292 45ft 2kts
18-Oct-20 08:47 33.675219 -117.867295 208 88ft 68kts
18-Oct-20 08:49 33.656999 -117.884024 214 850ft 72kts
18-Oct-20 08:50 33.647609 -117.906101 240 1504ft 74kts
18-Oct-20 08:50 33.637113 -117.923461 234 1898ft 86kts
18-Oct-20 08:52 33.622228 -117.959524 280 1997ft 111kts
18-Oct-20 08:52 33.631170 -117.987960 289 2234ft 107kts
18-Oct-20 08:54 33.655217 -118.011086 325 2822ft 87kts
18-Oct-20 08:54 33.669198 -118.025138 283 3238ft 73kts
18-Oct-20 08:55 33.672567 -118.046144 288 3450ft 75kts
18-Oct-20 08:56 33.677718 -118.067571 290 3938ft 79kts
18-Oct-20 08:57 33.685920 -118.097743 282 4124ft 95kts
18-Oct-20 08:58 33.695166 -118.130746 298 3936ft 111kts
18-Oct-20 08:59 33.708200 -118.161175 295 4024ft 99kts
18-Oct-20 09:00 33.721146 -118.191441 325 3964ft 104kts
18-Oct-20 09:01 33.746876 -118.193593 313 3949ft 102kts
18-Oct-20 09:02 33.767986 -118.215887 322 4041ft 100kts
18-Oct-20 09:03 33.785796 -118.237237 340 4057ft 105kts
18-Oct-20 09:04 33.810231 -118.256251 325 4060ft 106kts
18-Oct-20 09:05 33.835426 -118.275326 325 4059ft 107kts
18-Oct-20 09:06 33.861977 -118.292142 329 4060ft 108kts
18-Oct-20 09:07 33.888185 -118.309163 325 4059ft 108kts
18-Oct-20 09:08 33.911853 -118.328865 310 4057ft 108kts
18-Oct-20 09:09 33.930174 -118.356857 307 4060ft 107kts
18-Oct-20 09:10 33.948331 -118.384733 307 4063ft 108kts
18-Oct-20 09:11 33.969218 -118.411038 315 4059ft 109kts
18-Oct-20 09:12 33.991660 -118.435652 315 4060ft 109kts
18-Oct-20 09:13 34.013021 -118.461632 313 4062ft 109kts
18-Oct-20 09:14 34.034524 -118.487963 313 4061ft 111kts
18-Oct-20 09:15 34.055967 -118.514212 314 4058ft 111kts
18-Oct-20 09:16 34.077575 -118.540792 313 4071ft 111kts
18-Oct-20 09:17 34.099614 -118.567920 313 4062ft 114kts
18-Oct-20 09:18 34.121776 -118.595253 313 4058ft 113kts
18-Oct-20 09:19 34.143885 -118.622587 314 4062ft 113kts
18-Oct-20 09:20 34.166013 -118.612617 41 4055ft 115kts
18-Oct-20 09:21 34.189919 -118.587629 61 3489ft 118kts
18-Oct-20 09:22 34.200252 -118.552793 90 3076ft 104kts
18-Oct-20 09:23 34.199862 -118.519736 91 3066ft 95kts
18-Oct-20 09:24 34.199453 -118.487174 90 2658ft 96kts
18-Oct-20 09:25 34.199043 -118.455801 90 2163ft 93kts
18-Oct-20 09:26 34.198631 -118.424356 91 1666ft 93kts
18-Oct-20 09:27 34.198098 -118.393579 94 1170ft 82kts
18-Oct-20 09:28 34.197908 -118.368225 90 767ft 72kts
18-Oct-20 09:29 34.198625 -118.360243 359 717ft 0kts
18-Oct-20 09:30 34.199663 -118.359728 139 718ft 7kts
18-Oct-20 09:31 34.199476 -118.359661 178 717ft 0kts
18-Oct-20 09:32 34.199476 -118.359661 178 717ft 0kts
18-Oct-20 09:33 0.000408 0.013975 0 3ft 0kts
18-Oct-20 09:34 0.000408 0.013975 0 3ft 0kts
18-Oct-20 09:35 33.665153 -117.874006 209 47ft 0kts
18-Oct-20 09:37 33.665153 -117.874006 0 57ft 0kts
18-Oct-20 09:38 33.665153 -117.874006 0 57ft 0kts
18-Oct-20 09:39 33.665153 -117.874006 0 57ft 0kts
18-Oct-20 09:40 33.665153 -117.874006 0 57ft 0kts
18-Oct-20 09:41 33.665153 -117.874006 0 57ft 0kts
18-Oct-20 09:43 33.665153 -117.874006 209 57ft 0kts

Navigation Log

Ident Type
Flight plan parsing failed, navigation log unavailable